Menu Close Menu
Station Historical Data
Daily Summary for June 8, 2017 Units:  Metric    English   Both
« Previous Day
Next Day »
Daily Weekly Monthly Yearly Custom
  High: Low: Average:
Temperature: 25.6 °C 17.7 °C 21.3 °C
Dew Point: 17.6 °C 13.9 °C 16.1 °C
Humidity: 90% 49% 74%
Wind Speed: 1.6km/h 0km/h 0km/h
Wind Gust: 4.8km/h - -
Wind- - NW
Pressure: 1013.4 hPa 1010.4 hPa -
Precipitation: 0 mm    
Historical Graphs
 
 
Tabular Data for June 8, 2017
Time Temperature Dew Point Pressure Wind Wind Speed Wind Gust Humidity Rainfall Rate (Hourly) solar Conditions
00:00 20.4 °C 16.9 °C 1011.1 hPa Calm     80% 0 mm WeatherDisplay:10.37 W/m2 SCT
00:10 20.4 °C 16.8 °C 1011.1 hPa Calm     80% 0 mm WeatherDisplay:10.37 W/m2 SCT
00:20 20.2 °C 16.9 °C 1011.1 hPa Calm     81% 0 mm WeatherDisplay:10.37 W/m2 SCT
00:30 20.2 °C 17 °C 1011.1 hPa Calm     82% 0 mm WeatherDisplay:10.37 W/m2 SCT
00:40 20.1 °C 16.9 °C 1011.4 hPa Calm     82% 0 mm WeatherDisplay:10.37 W/m2 SCT
00:50 19.9 °C 16.8 °C 1011.4 hPa Calm     82% 0 mm WeatherDisplay:10.37 W/m2 SCT
01:10 19.7 °C 16.9 °C 1011.4 hPa Calm     84% 0 mm WeatherDisplay:10.37 W/m2 SCT
01:20 19.6 °C 16.8 °C 1011.4 hPa Calm     84% 0 mm WeatherDisplay:10.37 W/m2 SCT
01:30 19.6 °C 17 °C 1011.4 hPa Calm     85% 0 mm WeatherDisplay:10.37 W/m2 SCT
01:40 19.7 °C 17.1 °C 1011.4 hPa Calm     85% 0 mm WeatherDisplay:10.37 W/m2 SCT
01:50 19.7 °C 17.3 °C 1011.4 hPa Calm     86% 0 mm WeatherDisplay:10.37 W/m2 SCT
02:00 19.6 °C 17.2 °C 1011.4 hPa Calm     86% 0 mm WeatherDisplay:10.37 W/m2 SCT
02:10 19.5 °C 17.4 °C 1011.1 hPa Calm     88% 0 mm WeatherDisplay:10.37 W/m2 SCT
02:20 19.4 °C 17.4 °C 1011.1 hPa Calm     88% 0 mm WeatherDisplay:10.37 W/m2 SCT
02:30 19.4 °C 17.6 °C 1011.4 hPa Calm     89% 0 mm WeatherDisplay:10.37 W/m2 SCT
02:40 19.4 °C 17.6 °C 1011.1 hPa Calm     89% 0 mm WeatherDisplay:10.37 W/m2 SCT
02:50 19.3 °C 17.6 °C 1011.1 hPa Calm     90% 0 mm WeatherDisplay:10.37 W/m2 SCT
03:00 19.2 °C 17.6 °C 1011.1 hPa Calm     90% 0 mm WeatherDisplay:10.37 W/m2 SCT
03:10 19.2 °C 17.5 °C 1011.1 hPa Calm     90% 0 mm WeatherDisplay:10.37 W/m2 SCT
03:20 19.1 °C 17.2 °C 1011.1 hPa Calm     89% 0 mm WeatherDisplay:10.37 W/m2 SCT
03:30 18.6 °C 16.6 °C 1011.1 hPa Calm     88% 0 mm WeatherDisplay:10.37 W/m2 SCT
03:40 18.6 °C 16.6 °C 1011.1 hPa Calm     88% 0 mm WeatherDisplay:10.37 W/m2 SCT
03:50 18.6 °C 16.6 °C 1011.1 hPa Calm     88% 0 mm WeatherDisplay:10.37 W/m2 SCT
04:00 18.6 °C 16.6 °C 1011.1 hPa Calm     88% 0 mm WeatherDisplay:10.37 W/m2 SCT
04:10 18.6 °C 16.6 °C 1011.1 hPa Calm     88% 0 mm WeatherDisplay:10.37 W/m2 SCT
04:20 18.6 °C 16.6 °C 1011.1 hPa Calm     88% 0 mm WeatherDisplay:10.37 W/m2 SCT
04:30 18.6 °C 16.6 °C 1011.1 hPa Calm     88% 0 mm WeatherDisplay:10.37 W/m2 SCT
04:40 18.6 °C 16.6 °C 1011.1 hPa Calm     88% 0 mm WeatherDisplay:10.37 W/m2 SCT
04:50 18.6 °C 16.6 °C 1011.1 hPa Calm     88% 0 mm WeatherDisplay:10.37 W/m2 SCT
05:00 18.6 °C 16.6 °C 1011.1 hPa Calm     88% 0 mm WeatherDisplay:10.37 W/m2 SCT
05:10 18.6 °C 16.6 °C 1011.1 hPa Calm     88% 0 mm WeatherDisplay:10.37 W/m2 SCT
05:20 18.6 °C 16.6 °C 1011.1 hPa Calm     88% 0 mm WeatherDisplay:10.37 W/m2 SCT
05:30 18.6 °C 16.6 °C 1011.4 hPa Calm     88% 0 mm WeatherDisplay:10.37 W/m2 SCT
05:40 18.6 °C 16.6 °C 1011.4 hPa Calm     88% 0 mm WeatherDisplay:10.37 W/m2 SCT
05:50 18.6 °C 16.6 °C 1011.7 hPa Calm     88% 0 mm WeatherDisplay:10.37 W/m2 SCT
06:00 18.6 °C 16.6 °C 1011.7 hPa Calm     88% 0 mm WeatherDisplay:10.37 W/m2 SCT
06:20 18.6 °C 16.6 °C 1011.7 hPa Calm     88% 0 mm WeatherDisplay:10.37 W/m2 SCT
06:30 18.6 °C 16.6 °C 1012.1 hPa Calm     88% 0 mm WeatherDisplay:10.37 W/m2 SCT
06:40 18.6 °C 16.6 °C 1012.1 hPa Calm     88% 0 mm WeatherDisplay:10.37 W/m2 SCT
06:50 18.6 °C 16.6 °C 1012.1 hPa Calm     88% 0 mm WeatherDisplay:10.37 W/m2 SCT
07:00 18.6 °C 16.6 °C 1012.4 hPa Calm     88% 0 mm WeatherDisplay:10.37 W/m2 SCT
07:10 18.6 °C 16.6 °C 1012.4 hPa Calm     88% 0 mm WeatherDisplay:10.37 W/m2 SCT
07:20 18.6 °C 16.6 °C 1012.4 hPa Calm     88% 0 mm WeatherDisplay:10.37 W/m2 SCT
07:30 18.6 °C 16.6 °C 1012.4 hPa Calm     88% 0 mm WeatherDisplay:10.37 W/m2 SCT
07:40 18.6 °C 16.6 °C 1012.4 hPa Calm     88% 0 mm WeatherDisplay:10.37 W/m2 SCT
07:50 17.7 °C 16.1 °C 1012.4 hPa Calm     90% 0 mm WeatherDisplay:10.37 W/m2 SCT
08:00 17.9 °C 16.1 °C 1012.4 hPa Calm     89% 0 mm WeatherDisplay:10.37 W/m2 SCT
08:10 18.3 °C 16.2 °C 1012.8 hPa Calm     88% 0 mm WeatherDisplay:10.37 W/m2 SCT
08:20 18.5 °C 16.3 °C 1012.8 hPa Calm     87% 0 mm WeatherDisplay:10.37 W/m2 SCT
08:30 18.7 °C 16.3 °C 1012.8 hPa Calm     86% 0 mm WeatherDisplay:10.37 W/m2 SCT
08:40 18.7 °C 16.2 °C 1012.8 hPa Calm     85% 0 mm WeatherDisplay:10.37 W/m2 SCT
08:50 18.8 °C 16.1 °C 1012.8 hPa Calm   1.6 km/h 84% 0 mm WeatherDisplay:10.37 W/m2 SCT
09:00 19.1 °C 16.1 °C 1013.1 hPa Calm   1.6 km/h 83% 0 mm WeatherDisplay:10.37 W/m2 SCT
09:10 19.2 °C 16.1 °C 1013.1 hPa Calm   1.6 km/h 82% 0 mm WeatherDisplay:10.37 W/m2 SCT
09:20 19.6 °C 16.4 °C 1013.1 hPa Calm   3.2 km/h 82% 0 mm WeatherDisplay:10.37 W/m2 SCT
09:30 19.9 °C 16.5 °C 1013.1 hPa NW 1.6 km/h 3.2 km/h 81% 0 mm WeatherDisplay:10.37 W/m2 SCT
09:40 19.8 °C 15.7 °C 1013.1 hPa WNW 1.6 km/h 3.2 km/h 77% 0 mm WeatherDisplay:10.37 W/m2 SCT
09:50 19.9 °C 16.3 °C 1013.4 hPa Calm   1.6 km/h 80% 0 mm WeatherDisplay:10.37 W/m2 SCT
10:00 20.2 °C 16.1 °C 1013.4 hPa Calm   3.2 km/h 77% 0 mm WeatherDisplay:10.37 W/m2 SCT
10:10 20.4 °C 16.2 °C 1013.4 hPa Calm   1.6 km/h 77% 0 mm WeatherDisplay:10.37 W/m2 SCT
10:20 20.7 °C 16.6 °C 1013.4 hPa Calm   1.6 km/h 77% 0 mm WeatherDisplay:10.37 W/m2 SCT
10:30 21.2 °C 16.2 °C 1013.4 hPa Calm   4.8 km/h 73% 0 mm WeatherDisplay:10.37 W/m2 SCT
10:40 21.4 °C 15.9 °C 1013.4 hPa Calm   4.8 km/h 71% 0 mm WeatherDisplay:10.37 W/m2 SCT
10:50 21.7 °C 16.2 °C 1013.4 hPa Calm   3.2 km/h 71% 0 mm WeatherDisplay:10.37 W/m2 SCT
11:00 21.7 °C 16.4 °C 1013.4 hPa Calm   3.2 km/h 72% 0 mm WeatherDisplay:10.37 W/m2 SCT
11:10 21.7 °C 15.8 °C 1013.4 hPa Calm   3.2 km/h 69% 0 mm WeatherDisplay:10.37 W/m2 SCT
11:20 21.4 °C 16.2 °C 1013.4 hPa Calm   3.2 km/h 72% 0 mm WeatherDisplay:10.37 W/m2 SCT
11:30 21.2 °C 16 °C 1013.4 hPa Calm   3.2 km/h 72% 0 mm WeatherDisplay:10.37 W/m2 SCT
11:40 22.1 °C 15.9 °C 1013.4 hPa Calm   3.2 km/h 68% 0 mm WeatherDisplay:10.37 W/m2 SCT
11:50 22.4 °C 16.2 °C 1013.4 hPa Calm   3.2 km/h 68% 0 mm WeatherDisplay:10.37 W/m2 SCT
12:00 22.7 °C 15 °C 1013.4 hPa Calm   4.8 km/h 62% 0 mm WeatherDisplay:10.37 W/m2 SCT
12:10 22.7 °C 15.3 °C 1013.4 hPa Calm   3.2 km/h 63% 0 mm WeatherDisplay:10.37 W/m2 SCT
12:20 22.4 °C 16.2 °C 1013.4 hPa Calm   1.6 km/h 68% 0 mm WeatherDisplay:10.37 W/m2 SCT
12:30 23.1 °C 16.1 °C 1013.4 hPa Calm   3.2 km/h 65% 0 mm WeatherDisplay:10.37 W/m2 SCT
12:40 23.7 °C 15.7 °C 1013.1 hPa Calm   3.2 km/h 61% 0 mm WeatherDisplay:10.37 W/m2 SCT
12:50 24.3 °C 15.8 °C 1013.1 hPa Calm   3.2 km/h 59% 0 mm WeatherDisplay:10.37 W/m2 SCT
13:00 23.7 °C 14.7 °C 1013.4 hPa Calm   1.6 km/h 57% 0 mm WeatherDisplay:10.37 W/m2 SCT
13:10 23.7 °C 15.5 °C 1013.1 hPa NW 1.6 km/h 1.6 km/h 60% 0 mm WeatherDisplay:10.37 W/m2 SCT
13:20 23.8 °C 15.6 °C 1013.1 hPa Calm   1.6 km/h 60% 0 mm WeatherDisplay:10.37 W/m2 SCT
13:30 23.6 °C 15.6 °C 1013.1 hPa Calm   1.6 km/h 61% 0 mm WeatherDisplay:10.37 W/m2 SCT
13:40 24 °C 16.3 °C 1013.1 hPa Calm   3.2 km/h 62% 0 mm WeatherDisplay:10.37 W/m2 SCT
13:50 24.2 °C 15.7 °C 1013.1 hPa Calm     59% 0 mm WeatherDisplay:10.37 W/m2 SCT
14:00 24.3 °C 16.1 °C 1013.1 hPa Calm   1.6 km/h 60% 0 mm WeatherDisplay:10.37 W/m2 SCT
14:10 24.8 °C 15.4 °C 1012.8 hPa Calm   3.2 km/h 56% 0 mm WeatherDisplay:10.37 W/m2 SCT
14:20 25.2 °C 15.5 °C 1012.8 hPa Calm   1.6 km/h 55% 0 mm WeatherDisplay:10.37 W/m2 SCT
14:30 25.3 °C 14.8 °C 1012.4 hPa Calm   3.2 km/h 52% 0 mm WeatherDisplay:10.37 W/m2 SCT
14:40 25.1 °C 15.2 °C 1012.4 hPa Calm   1.6 km/h 54% 0 mm WeatherDisplay:10.37 W/m2 SCT
14:50 25.2 °C 14.7 °C 1012.4 hPa Calm   3.2 km/h 52% 0 mm WeatherDisplay:10.37 W/m2 SCT
15:00 24.7 °C 14.8 °C 1012.4 hPa Calm   3.2 km/h 54% 0 mm WeatherDisplay:10.37 W/m2 SCT
15:10 24.9 °C 15.8 °C 1012.1 hPa Calm   1.6 km/h 57% 0 mm WeatherDisplay:10.37 W/m2 SCT
15:20 24.9 °C 14.1 °C 1011.7 hPa Calm   1.6 km/h 51% 0 mm WeatherDisplay:10.37 W/m2 SCT
15:30 24.9 °C 15.3 °C 1011.7 hPa Calm   1.6 km/h 55% 0 mm WeatherDisplay:10.37 W/m2 SCT
15:40 25.1 °C 15.4 °C 1011.4 hPa Calm   1.6 km/h 55% 0 mm WeatherDisplay:10.37 W/m2 SCT
15:50 25 °C 14.7 °C 1011.4 hPa Calm   1.6 km/h 53% 0 mm WeatherDisplay:10.37 W/m2 SCT
16:00 25 °C 14.8 °C 1011.4 hPa Calm   1.6 km/h 53% 0 mm WeatherDisplay:10.37 W/m2 SCT
16:10 25.2 °C 14.7 °C 1011.1 hPa Calm   1.6 km/h 52% 0 mm WeatherDisplay:10.37 W/m2 SCT
16:20 25.1 °C 13.9 °C 1011.1 hPa Calm   4.8 km/h 50% 0 mm WeatherDisplay:10.37 W/m2 SCT
16:30 25.4 °C 13.9 °C 1011.1 hPa Calm   3.2 km/h 49% 0 mm WeatherDisplay:10.37 W/m2 SCT
16:40 25.2 °C 14.1 °C 1011.1 hPa Calm   3.2 km/h 50% 0 mm WeatherDisplay:10.37 W/m2 SCT
16:50 24.8 °C 15.1 °C 1010.7 hPa Calm   3.2 km/h 55% 0 mm WeatherDisplay:10.37 W/m2 SCT
17:00 24.4 °C 15.7 °C 1010.7 hPa Calm     58% 0 mm WeatherDisplay:10.37 W/m2 SCT
17:10 25.2 °C 14.6 °C 1010.7 hPa Calm   1.6 km/h 52% 0 mm WeatherDisplay:10.37 W/m2 SCT
17:20 25.6 °C 15.3 °C 1010.4 hPa Calm     53% 0 mm WeatherDisplay:10.37 W/m2 SCT
17:30 25.1 °C 15.7 °C 1010.4 hPa Calm     56% 0 mm WeatherDisplay:10.37 W/m2 SCT
17:40 24.1 °C 15.3 °C 1010.4 hPa Calm   1.6 km/h 58% 0 mm WeatherDisplay:10.37 W/m2 SCT
17:50 23.8 °C 16.1 °C 1010.4 hPa Calm     62% 0 mm WeatherDisplay:10.37 W/m2 SCT
18:00 24.2 °C 15.4 °C 1010.4 hPa Calm     58% 0 mm WeatherDisplay:10.37 W/m2 SCT
18:10 24.1 °C 15 °C 1010.4 hPa Calm     57% 0 mm WeatherDisplay:10.37 W/m2 SCT
18:20 23.8 °C 16.3 °C 1010.4 hPa Calm     63% 0 mm WeatherDisplay:10.37 W/m2 SCT
18:30 23.7 °C 16.5 °C 1010.4 hPa Calm     64% 0 mm WeatherDisplay:10.37 W/m2 SCT
18:40 23.6 °C 16.3 °C 1010.4 hPa Calm     64% 0 mm WeatherDisplay:10.37 W/m2 SCT
18:50 23.3 °C 16.6 °C 1010.4 hPa Calm     66% 0 mm WeatherDisplay:10.37 W/m2 SCT
19:00 23.3 °C 16.4 °C 1010.4 hPa Calm     65% 0 mm WeatherDisplay:10.37 W/m2 SCT
19:10 23.4 °C 16.7 °C 1010.4 hPa Calm     66% 0 mm WeatherDisplay:10.37 W/m2 SCT
19:20 23.5 °C 16.1 °C 1010.4 hPa Calm   1.6 km/h 63% 0 mm WeatherDisplay:10.37 W/m2 SCT
19:30 23.3 °C 15.6 °C 1010.7 hPa Calm     62% 0 mm WeatherDisplay:10.37 W/m2 SCT
19:40 23.1 °C 15.9 °C 1010.7 hPa Calm     64% 0 mm WeatherDisplay:10.37 W/m2 SCT
19:50 22.9 °C 15.4 °C 1010.7 hPa Calm     63% 0 mm WeatherDisplay:10.37 W/m2 SCT
20:00 22.7 °C 16.3 °C 1010.7 hPa Calm     67% 0 mm WeatherDisplay:10.37 W/m2 SCT
20:10 22.6 °C 16.6 °C 1011.1 hPa Calm     69% 0 mm WeatherDisplay:10.37 W/m2 SCT
20:20 22.4 °C 16.2 °C 1010.7 hPa Calm     68% 0 mm WeatherDisplay:10.37 W/m2 SCT
20:30 22.4 °C 16.7 °C 1011.1 hPa Calm     70% 0 mm WeatherDisplay:10.37 W/m2 SCT
20:40 22.3 °C 16.3 °C 1011.1 hPa Calm     69% 0 mm WeatherDisplay:10.37 W/m2 SCT
20:50 22.1 °C 16.6 °C 1011.1 hPa Calm     71% 0 mm WeatherDisplay:10.37 W/m2 SCT
21:00 21.9 °C 16.4 °C 1011.1 hPa Calm     71% 0 mm WeatherDisplay:10.37 W/m2 SCT
21:10 21.6 °C 16.2 °C 1011.1 hPa Calm     71% 0 mm WeatherDisplay:10.37 W/m2 SCT
21:20 21.4 °C 16.2 °C 1011.4 hPa Calm     72% 0 mm WeatherDisplay:10.37 W/m2 SCT
21:30 21.2 °C 15.9 °C 1011.4 hPa Calm     72% 0 mm WeatherDisplay:10.37 W/m2 SCT
21:40 20.9 °C 15.9 °C 1011.4 hPa Calm     73% 0 mm WeatherDisplay:10.37 W/m2 SCT
21:50 20.8 °C 16 °C 1011.4 hPa Calm     74% 0 mm WeatherDisplay:10.37 W/m2 SCT
22:00 20.7 °C 15.9 °C 1011.7 hPa Calm     74% 0 mm WeatherDisplay:10.37 W/m2 SCT
22:10 20.4 °C 15.8 °C 1011.7 hPa Calm     75% 0 mm WeatherDisplay:10.37 W/m2 SCT
22:20 20.2 °C 16.1 °C 1011.7 hPa Calm     77% 0 mm WeatherDisplay:10.37 W/m2 SCT
22:30 20.1 °C 16.2 °C 1011.7 hPa Calm     78% 0 mm WeatherDisplay:10.37 W/m2 SCT
22:40 19.9 °C 16 °C 1012.1 hPa Calm     78% 0 mm WeatherDisplay:10.37 W/m2 SCT
22:50 19.8 °C 16.1 °C 1012.1 hPa Calm     79% 0 mm WeatherDisplay:10.37 W/m2 SCT
23:00 19.7 °C 16.2 °C 1012.4 hPa Calm     80% 0 mm WeatherDisplay:10.37 W/m2 SCT
23:10 19.6 °C 15.9 °C 1012.4 hPa Calm     79% 0 mm WeatherDisplay:10.37 W/m2 SCT
23:20 19.6 °C 16.1 °C 1012.4 hPa Calm     80% 0 mm WeatherDisplay:10.37 W/m2 SCT
23:40 19.6 °C 16.1 °C 1012.4 hPa Calm     80% 0 mm WeatherDisplay:10.37 W/m2 SCT
23:50 19.7 °C 16.1 °C 1012.4 hPa Calm     80% 0 mm WeatherDisplay:10.37 W/m2 SCT
Piedmont Bend
Compliments of Weather Underground - 4 mb